sensor_id;sensor_type;location;lat;lon;timestamp;P1;durP1;ratioP1;P2;durP2;ratioP2
51836;SDS011;38941;53.254;6.600;2023-11-21T00:01:49;14.10;;;2.97;;
51836;SDS011;38941;53.254;6.600;2023-11-21T00:03:50;20.25;;;3.65;;
51836;SDS011;38941;53.254;6.600;2023-11-21T00:05:50;19.58;;;3.83;;
51836;SDS011;38941;53.254;6.600;2023-11-21T00:07:52;15.25;;;3.38;;
51836;SDS011;38941;53.254;6.600;2023-11-21T00:09:53;15.68;;;3.85;;
51836;SDS011;38941;53.254;6.600;2023-11-21T00:11:55;16.08;;;4.45;;
51836;SDS011;38941;53.254;6.600;2023-11-21T00:13:56;13.27;;;3.67;;
51836;SDS011;38941;53.254;6.600;2023-11-21T00:15:58;22.38;;;3.78;;
51836;SDS011;38941;53.254;6.600;2023-11-21T00:17:59;19.95;;;4.13;;
51836;SDS011;38941;53.254;6.600;2023-11-21T00:20:00;21.15;;;4.40;;
51836;SDS011;38941;53.254;6.600;2023-11-21T00:22:01;13.52;;;3.67;;
51836;SDS011;38941;53.254;6.600;2023-11-21T00:24:01;16.33;;;3.28;;
51836;SDS011;38941;53.254;6.600;2023-11-21T00:26:02;13.05;;;3.83;;
51836;SDS011;38941;53.254;6.600;2023-11-21T00:28:04;20.27;;;3.85;;
51836;SDS011;38941;53.254;6.600;2023-11-21T00:30:06;17.33;;;3.88;;
51836;SDS011;38941;53.254;6.600;2023-11-21T00:32:09;15.23;;;3.50;;
51836;SDS011;38941;53.254;6.600;2023-11-21T00:34:11;13.63;;;2.92;;
51836;SDS011;38941;53.254;6.600;2023-11-21T00:36:12;18.08;;;3.08;;
51836;SDS011;38941;53.254;6.600;2023-11-21T00:38:13;21.35;;;3.15;;
51836;SDS011;38941;53.254;6.600;2023-11-21T00:40:14;20.15;;;3.40;;
51836;SDS011;38941;53.254;6.600;2023-11-21T00:42:16;19.42;;;3.75;;
51836;SDS011;38941;53.254;6.600;2023-11-21T00:44:17;24.50;;;4.68;;
51836;SDS011;38941;53.254;6.600;2023-11-21T00:46:17;19.83;;;3.88;;
51836;SDS011;38941;53.254;6.600;2023-11-21T00:48:18;18.02;;;3.72;;
51836;SDS011;38941;53.254;6.600;2023-11-21T00:50:19;25.33;;;4.68;;
51836;SDS011;38941;53.254;6.600;2023-11-21T00:52:19;19.10;;;3.75;;
51836;SDS011;38941;53.254;6.600;2023-11-21T00:54:20;23.35;;;4.97;;
51836;SDS011;38941;53.254;6.600;2023-11-21T00:56:21;19.30;;;4.07;;
51836;SDS011;38941;53.254;6.600;2023-11-21T00:58:23;25.92;;;4.93;;
51836;SDS011;38941;53.254;6.600;2023-11-21T01:00:25;21.77;;;3.42;;
51836;SDS011;38941;53.254;6.600;2023-11-21T01:02:26;19.25;;;3.80;;
51836;SDS011;38941;53.254;6.600;2023-11-21T01:04:26;20.98;;;4.03;;
51836;SDS011;38941;53.254;6.600;2023-11-21T01:06:27;14.80;;;3.80;;
51836;SDS011;38941;53.254;6.600;2023-11-21T01:08:28;34.10;;;4.85;;
51836;SDS011;38941;53.254;6.600;2023-11-21T01:10:29;19.73;;;4.72;;
51836;SDS011;38941;53.254;6.600;2023-11-21T01:12:30;14.98;;;3.85;;
51836;SDS011;38941;53.254;6.600;2023-11-21T01:14:31;17.98;;;4.05;;
51836;SDS011;38941;53.254;6.600;2023-11-21T01:16:32;20.27;;;4.40;;
51836;SDS011;38941;53.254;6.600;2023-11-21T01:18:33;30.63;;;4.25;;
51836;SDS011;38941;53.254;6.600;2023-11-21T01:20:35;22.55;;;4.78;;
51836;SDS011;38941;53.254;6.600;2023-11-21T01:22:35;17.60;;;3.85;;
51836;SDS011;38941;53.254;6.600;2023-11-21T01:24:36;19.80;;;5.20;;
51836;SDS011;38941;53.254;6.600;2023-11-21T01:26:37;16.90;;;4.07;;
51836;SDS011;38941;53.254;6.600;2023-11-21T01:28:37;20.25;;;5.05;;
51836;SDS011;38941;53.254;6.600;2023-11-21T01:30:38;19.83;;;4.85;;
51836;SDS011;38941;53.254;6.600;2023-11-21T01:32:39;26.20;;;5.70;;
51836;SDS011;38941;53.254;6.600;2023-11-21T01:34:40;21.45;;;4.68;;
51836;SDS011;38941;53.254;6.600;2023-11-21T01:36:41;15.82;;;4.20;;
51836;SDS011;38941;53.254;6.600;2023-11-21T01:38:42;16.58;;;4.53;;
51836;SDS011;38941;53.254;6.600;2023-11-21T01:40:42;19.70;;;4.68;;
51836;SDS011;38941;53.254;6.600;2023-11-21T01:42:44;22.75;;;4.85;;
51836;SDS011;38941;53.254;6.600;2023-11-21T01:44:46;17.65;;;4.32;;
51836;SDS011;38941;53.254;6.600;2023-11-21T01:46:50;25.05;;;5.95;;
51836;SDS011;38941;53.254;6.600;2023-11-21T01:48:52;23.20;;;3.85;;
51836;SDS011;38941;53.254;6.600;2023-11-21T01:50:54;26.55;;;4.95;;
51836;SDS011;38941;53.254;6.600;2023-11-21T01:52:55;18.08;;;4.40;;
51836;SDS011;38941;53.254;6.600;2023-11-21T01:54:57;27.05;;;5.40;;
51836;SDS011;38941;53.254;6.600;2023-11-21T01:56:59;29.98;;;5.65;;
51836;SDS011;38941;53.254;6.600;2023-11-21T01:59:03;28.27;;;5.13;;
51836;SDS011;38941;53.254;6.600;2023-11-21T02:01:03;21.27;;;5.10;;
51836;SDS011;38941;53.254;6.600;2023-11-21T02:03:05;23.75;;;5.80;;
51836;SDS011;38941;53.254;6.600;2023-11-21T02:05:07;21.85;;;4.80;;
51836;SDS011;38941;53.254;6.600;2023-11-21T02:07:09;35.17;;;5.60;;
51836;SDS011;38941;53.254;6.600;2023-11-21T02:09:10;20.13;;;4.03;;
51836;SDS011;38941;53.254;6.600;2023-11-21T02:11:16;21.23;;;4.80;;
51836;SDS011;38941;53.254;6.600;2023-11-21T02:13:17;28.27;;;6.03;;
51836;SDS011;38941;53.254;6.600;2023-11-21T02:15:17;25.27;;;5.97;;
51836;SDS011;38941;53.254;6.600;2023-11-21T02:17:21;24.33;;;5.47;;
51836;SDS011;38941;53.254;6.600;2023-11-21T02:19:22;25.88;;;5.35;;
51836;SDS011;38941;53.254;6.600;2023-11-21T02:21:25;24.73;;;5.45;;
51836;SDS011;38941;53.254;6.600;2023-11-21T02:23:27;20.27;;;5.30;;
51836;SDS011;38941;53.254;6.600;2023-11-21T02:25:29;21.05;;;5.43;;
51836;SDS011;38941;53.254;6.600;2023-11-21T02:27:31;32.03;;;6.80;;
51836;SDS011;38941;53.254;6.600;2023-11-21T02:29:33;29.40;;;5.72;;
51836;SDS011;38941;53.254;6.600;2023-11-21T02:31:34;32.58;;;6.32;;
51836;SDS011;38941;53.254;6.600;2023-11-21T02:33:35;25.95;;;6.25;;
51836;SDS011;38941;53.254;6.600;2023-11-21T02:35:35;22.83;;;6.15;;
51836;SDS011;38941;53.254;6.600;2023-11-21T02:37:36;26.27;;;6.53;;
51836;SDS011;38941;53.254;6.600;2023-11-21T02:39:37;27.33;;;6.05;;
51836;SDS011;38941;53.254;6.600;2023-11-21T02:41:38;26.48;;;6.28;;
51836;SDS011;38941;53.254;6.600;2023-11-21T02:43:39;29.83;;;7.03;;
51836;SDS011;38941;53.254;6.600;2023-11-21T02:45:39;27.42;;;7.53;;
51836;SDS011;38941;53.254;6.600;2023-11-21T02:47:44;27.85;;;7.20;;
51836;SDS011;38941;53.254;6.600;2023-11-21T02:49:45;28.35;;;6.05;;
51836;SDS011;38941;53.254;6.600;2023-11-21T02:51:46;21.65;;;5.88;;
51836;SDS011;38941;53.254;6.600;2023-11-21T02:53:46;26.40;;;6.07;;
51836;SDS011;38941;53.254;6.600;2023-11-21T02:55:47;19.98;;;5.63;;
51836;SDS011;38941;53.254;6.600;2023-11-21T02:57:48;19.95;;;5.95;;
51836;SDS011;38941;53.254;6.600;2023-11-21T02:59:48;27.02;;;5.97;;
51836;SDS011;38941;53.254;6.600;2023-11-21T03:01:50;30.27;;;6.20;;
51836;SDS011;38941;53.254;6.600;2023-11-21T03:03:50;22.90;;;5.60;;
51836;SDS011;38941;53.254;6.600;2023-11-21T03:05:52;28.98;;;5.55;;
51836;SDS011;38941;53.254;6.600;2023-11-21T03:07:53;29.85;;;6.05;;
51836;SDS011;38941;53.254;6.600;2023-11-21T03:09:53;32.40;;;6.47;;
51836;SDS011;38941;53.254;6.600;2023-11-21T03:11:54;29.42;;;8.40;;
51836;SDS011;38941;53.254;6.600;2023-11-21T03:13:55;26.50;;;5.72;;
51836;SDS011;38941;53.254;6.600;2023-11-21T03:15:56;28.70;;;7.40;;
51836;SDS011;38941;53.254;6.600;2023-11-21T03:17:57;23.27;;;5.82;;
51836;SDS011;38941;53.254;6.600;2023-11-21T03:19:57;26.42;;;5.57;;
51836;SDS011;38941;53.254;6.600;2023-11-21T03:21:58;28.95;;;6.15;;
51836;SDS011;38941;53.254;6.600;2023-11-21T03:23:59;33.30;;;6.63;;
51836;SDS011;38941;53.254;6.600;2023-11-21T03:26:00;25.98;;;5.90;;
51836;SDS011;38941;53.254;6.600;2023-11-21T03:28:01;28.25;;;6.13;;
51836;SDS011;38941;53.254;6.600;2023-11-21T03:30:02;25.73;;;5.85;;
51836;SDS011;38941;53.254;6.600;2023-11-21T03:32:04;30.52;;;6.53;;
51836;SDS011;38941;53.254;6.600;2023-11-21T03:34:05;29.20;;;6.35;;
51836;SDS011;38941;53.254;6.600;2023-11-21T03:36:06;21.05;;;5.63;;
51836;SDS011;38941;53.254;6.600;2023-11-21T03:38:08;20.75;;;5.53;;
51836;SDS011;38941;53.254;6.600;2023-11-21T03:40:10;31.20;;;7.30;;
51836;SDS011;38941;53.254;6.600;2023-11-21T03:42:13;29.48;;;7.28;;
51836;SDS011;38941;53.254;6.600;2023-11-21T03:44:14;28.10;;;6.95;;
51836;SDS011;38941;53.254;6.600;2023-11-21T03:46:15;30.13;;;5.55;;
51836;SDS011;38941;53.254;6.600;2023-11-21T03:48:15;26.63;;;6.78;;
51836;SDS011;38941;53.254;6.600;2023-11-21T03:50:16;30.48;;;5.93;;
51836;SDS011;38941;53.254;6.600;2023-11-21T03:52:17;30.33;;;6.07;;
51836;SDS011;38941;53.254;6.600;2023-11-21T03:54:17;33.60;;;6.82;;
51836;SDS011;38941;53.254;6.600;2023-11-21T03:56:18;34.80;;;6.40;;
51836;SDS011;38941;53.254;6.600;2023-11-21T03:58:21;34.90;;;6.97;;
51836;SDS011;38941;53.254;6.600;2023-11-21T04:00:22;30.65;;;6.32;;
51836;SDS011;38941;53.254;6.600;2023-11-21T04:02:23;59.97;;;7.28;;
51836;SDS011;38941;53.254;6.600;2023-11-21T04:04:26;37.78;;;7.40;;
51836;SDS011;38941;53.254;6.600;2023-11-21T04:06:26;29.67;;;6.57;;
51836;SDS011;38941;53.254;6.600;2023-11-21T04:08:27;39.05;;;7.38;;
51836;SDS011;38941;53.254;6.600;2023-11-21T04:10:27;30.52;;;6.68;;
51836;SDS011;38941;53.254;6.600;2023-11-21T04:12:29;31.42;;;6.40;;
51836;SDS011;38941;53.254;6.600;2023-11-21T04:14:29;33.55;;;5.97;;
51836;SDS011;38941;53.254;6.600;2023-11-21T04:16:30;40.47;;;5.95;;
51836;SDS011;38941;53.254;6.600;2023-11-21T04:18:31;28.90;;;6.75;;
51836;SDS011;38941;53.254;6.600;2023-11-21T04:20:31;40.40;;;6.60;;
51836;SDS011;38941;53.254;6.600;2023-11-21T04:22:32;34.85;;;7.20;;
51836;SDS011;38941;53.254;6.600;2023-11-21T04:24:33;36.83;;;7.00;;
51836;SDS011;38941;53.254;6.600;2023-11-21T04:26:33;34.60;;;7.30;;
51836;SDS011;38941;53.254;6.600;2023-11-21T04:28:35;21.50;;;5.93;;
51836;SDS011;38941;53.254;6.600;2023-11-21T04:30:36;35.65;;;6.75;;
51836;SDS011;38941;53.254;6.600;2023-11-21T04:32:36;34.15;;;7.45;;
51836;SDS011;38941;53.254;6.600;2023-11-21T04:34:37;24.00;;;6.50;;
51836;SDS011;38941;53.254;6.600;2023-11-21T04:36:38;26.08;;;7.22;;
51836;SDS011;38941;53.254;6.600;2023-11-21T04:38:40;33.08;;;6.32;;
51836;SDS011;38941;53.254;6.600;2023-11-21T04:40:40;28.90;;;6.32;;
51836;SDS011;38941;53.254;6.600;2023-11-21T04:42:41;31.10;;;6.53;;
51836;SDS011;38941;53.254;6.600;2023-11-21T04:44:42;37.67;;;6.55;;
51836;SDS011;38941;53.254;6.600;2023-11-21T04:46:45;32.67;;;7.90;;
51836;SDS011;38941;53.254;6.600;2023-11-21T04:48:45;36.15;;;7.80;;
51836;SDS011;38941;53.254;6.600;2023-11-21T04:50:47;29.25;;;6.57;;
51836;SDS011;38941;53.254;6.600;2023-11-21T04:52:47;33.50;;;7.05;;
51836;SDS011;38941;53.254;6.600;2023-11-21T04:54:49;23.02;;;6.68;;
51836;SDS011;38941;53.254;6.600;2023-11-21T04:56:50;28.30;;;6.72;;
51836;SDS011;38941;53.254;6.600;2023-11-21T04:58:50;29.65;;;7.95;;
51836;SDS011;38941;53.254;6.600;2023-11-21T05:00:52;23.27;;;6.75;;
51836;SDS011;38941;53.254;6.600;2023-11-21T05:02:53;28.52;;;7.47;;
51836;SDS011;38941;53.254;6.600;2023-11-21T05:04:53;31.13;;;7.28;;
51836;SDS011;38941;53.254;6.600;2023-11-21T05:06:56;21.55;;;6.40;;
51836;SDS011;38941;53.254;6.600;2023-11-21T05:08:57;26.35;;;7.40;;
51836;SDS011;38941;53.254;6.600;2023-11-21T05:10:58;20.10;;;6.13;;
51836;SDS011;38941;53.254;6.600;2023-11-21T05:12:59;20.42;;;5.82;;
51836;SDS011;38941;53.254;6.600;2023-11-21T05:15:00;20.10;;;5.97;;
51836;SDS011;38941;53.254;6.600;2023-11-21T05:17:01;20.10;;;6.35;;
51836;SDS011;38941;53.254;6.600;2023-11-21T05:19:02;22.50;;;6.15;;
51836;SDS011;38941;53.254;6.600;2023-11-21T05:21:04;17.63;;;6.55;;
51836;SDS011;38941;53.254;6.600;2023-11-21T05:23:05;19.98;;;6.10;;
51836;SDS011;38941;53.254;6.600;2023-11-21T05:25:06;20.58;;;6.60;;
51836;SDS011;38941;53.254;6.600;2023-11-21T05:27:11;15.85;;;5.50;;
51836;SDS011;38941;53.254;6.600;2023-11-21T05:29:12;15.68;;;6.22;;
51836;SDS011;38941;53.254;6.600;2023-11-21T05:31:13;18.70;;;6.70;;
51836;SDS011;38941;53.254;6.600;2023-11-21T05:33:14;23.42;;;6.43;;
51836;SDS011;38941;53.254;6.600;2023-11-21T05:35:14;18.05;;;6.90;;
51836;SDS011;38941;53.254;6.600;2023-11-21T05:37:15;18.27;;;6.03;;
51836;SDS011;38941;53.254;6.600;2023-11-21T05:39:17;24.33;;;7.22;;
51836;SDS011;38941;53.254;6.600;2023-11-21T05:41:19;17.90;;;6.65;;
51836;SDS011;38941;53.254;6.600;2023-11-21T05:43:20;20.17;;;6.63;;
51836;SDS011;38941;53.254;6.600;2023-11-21T05:45:21;16.58;;;6.10;;
51836;SDS011;38941;53.254;6.600;2023-11-21T05:47:22;24.33;;;6.72;;
51836;SDS011;38941;53.254;6.600;2023-11-21T05:49:22;20.45;;;6.82;;
51836;SDS011;38941;53.254;6.600;2023-11-21T05:51:23;20.95;;;7.30;;
51836;SDS011;38941;53.254;6.600;2023-11-21T05:53:25;19.70;;;7.72;;
51836;SDS011;38941;53.254;6.600;2023-11-21T05:55:25;23.70;;;7.10;;
51836;SDS011;38941;53.254;6.600;2023-11-21T05:57:26;25.42;;;8.73;;
51836;SDS011;38941;53.254;6.600;2023-11-21T05:59:27;27.10;;;8.40;;
51836;SDS011;38941;53.254;6.600;2023-11-21T06:01:28;24.00;;;8.77;;
51836;SDS011;38941;53.254;6.600;2023-11-21T06:03:28;26.50;;;9.52;;
51836;SDS011;38941;53.254;6.600;2023-11-21T06:05:29;32.13;;;9.25;;
51836;SDS011;38941;53.254;6.600;2023-11-21T06:07:32;24.65;;;8.75;;
51836;SDS011;38941;53.254;6.600;2023-11-21T06:09:32;27.88;;;9.25;;
51836;SDS011;38941;53.254;6.600;2023-11-21T06:11:35;25.83;;;9.45;;
51836;SDS011;38941;53.254;6.600;2023-11-21T06:13:35;27.70;;;8.90;;
51836;SDS011;38941;53.254;6.600;2023-11-21T06:15:36;24.98;;;8.30;;
51836;SDS011;38941;53.254;6.600;2023-11-21T06:17:37;23.85;;;7.57;;
51836;SDS011;38941;53.254;6.600;2023-11-21T06:19:39;25.20;;;8.18;;
51836;SDS011;38941;53.254;6.600;2023-11-21T06:21:40;26.33;;;8.77;;
51836;SDS011;38941;53.254;6.600;2023-11-21T06:23:40;20.02;;;7.82;;
51836;SDS011;38941;53.254;6.600;2023-11-21T06:25:41;20.40;;;7.25;;
51836;SDS011;38941;53.254;6.600;2023-11-21T06:27:43;22.00;;;7.95;;
51836;SDS011;38941;53.254;6.600;2023-11-21T06:29:44;19.88;;;7.43;;
51836;SDS011;38941;53.254;6.600;2023-11-21T06:31:45;23.95;;;7.90;;
51836;SDS011;38941;53.254;6.600;2023-11-21T06:33:46;19.73;;;7.18;;
51836;SDS011;38941;53.254;6.600;2023-11-21T06:35:47;20.75;;;7.75;;
51836;SDS011;38941;53.254;6.600;2023-11-21T06:37:47;17.60;;;7.18;;
51836;SDS011;38941;53.254;6.600;2023-11-21T06:39:48;20.52;;;8.23;;
51836;SDS011;38941;53.254;6.600;2023-11-21T06:41:52;16.25;;;6.85;;
51836;SDS011;38941;53.254;6.600;2023-11-21T06:43:53;18.10;;;6.82;;
51836;SDS011;38941;53.254;6.600;2023-11-21T06:45:53;17.48;;;7.40;;
51836;SDS011;38941;53.254;6.600;2023-11-21T06:47:54;19.35;;;7.35;;
51836;SDS011;38941;53.254;6.600;2023-11-21T06:49:55;23.92;;;8.77;;
51836;SDS011;38941;53.254;6.600;2023-11-21T06:51:57;18.55;;;7.55;;
51836;SDS011;38941;53.254;6.600;2023-11-21T06:53:58;25.30;;;8.30;;
51836;SDS011;38941;53.254;6.600;2023-11-21T06:55:59;23.38;;;8.05;;
51836;SDS011;38941;53.254;6.600;2023-11-21T06:58:00;20.75;;;7.35;;
51836;SDS011;38941;53.254;6.600;2023-11-21T07:00:00;24.50;;;8.73;;
51836;SDS011;38941;53.254;6.600;2023-11-21T07:02:01;21.05;;;8.70;;
51836;SDS011;38941;53.254;6.600;2023-11-21T07:04:02;27.73;;;10.05;;
51836;SDS011;38941;53.254;6.600;2023-11-21T07:06:03;31.38;;;11.27;;
51836;SDS011;38941;53.254;6.600;2023-11-21T07:08:04;29.73;;;11.10;;
51836;SDS011;38941;53.254;6.600;2023-11-21T07:10:05;33.67;;;12.05;;
51836;SDS011;38941;53.254;6.600;2023-11-21T07:12:08;28.92;;;11.00;;
51836;SDS011;38941;53.254;6.600;2023-11-21T07:14:08;25.27;;;9.07;;
51836;SDS011;38941;53.254;6.600;2023-11-21T07:16:09;25.80;;;10.02;;
51836;SDS011;38941;53.254;6.600;2023-11-21T07:18:10;23.83;;;9.88;;
51836;SDS011;38941;53.254;6.600;2023-11-21T07:20:11;23.33;;;9.52;;
51836;SDS011;38941;53.254;6.600;2023-11-21T07:22:12;21.25;;;8.38;;
51836;SDS011;38941;53.254;6.600;2023-11-21T07:24:14;21.08;;;9.15;;
51836;SDS011;38941;53.254;6.600;2023-11-21T07:26:14;18.40;;;8.27;;
51836;SDS011;38941;53.254;6.600;2023-11-21T07:28:15;18.83;;;8.32;;
51836;SDS011;38941;53.254;6.600;2023-11-21T07:30:16;21.05;;;8.55;;
51836;SDS011;38941;53.254;6.600;2023-11-21T07:32:17;20.33;;;8.48;;
51836;SDS011;38941;53.254;6.600;2023-11-21T07:34:19;22.38;;;8.48;;
51836;SDS011;38941;53.254;6.600;2023-11-21T07:36:20;21.25;;;8.82;;
51836;SDS011;38941;53.254;6.600;2023-11-21T07:38:21;24.02;;;9.68;;
51836;SDS011;38941;53.254;6.600;2023-11-21T07:40:22;21.05;;;9.77;;
51836;SDS011;38941;53.254;6.600;2023-11-21T07:42:23;21.65;;;10.00;;
51836;SDS011;38941;53.254;6.600;2023-11-21T07:44:26;21.30;;;8.75;;
51836;SDS011;38941;53.254;6.600;2023-11-21T07:46:26;27.98;;;10.45;;
51836;SDS011;38941;53.254;6.600;2023-11-21T07:48:31;22.25;;;8.63;;
51836;SDS011;38941;53.254;6.600;2023-11-21T07:50:31;24.38;;;9.60;;
51836;SDS011;38941;53.254;6.600;2023-11-21T07:52:32;25.08;;;10.57;;
51836;SDS011;38941;53.254;6.600;2023-11-21T07:54:33;24.08;;;9.50;;
51836;SDS011;38941;53.254;6.600;2023-11-21T07:56:36;20.23;;;9.60;;
51836;SDS011;38941;53.254;6.600;2023-11-21T07:58:36;25.48;;;9.88;;
51836;SDS011;38941;53.254;6.600;2023-11-21T08:00:37;24.00;;;10.35;;
51836;SDS011;38941;53.254;6.600;2023-11-21T08:02:39;21.88;;;10.35;;
51836;SDS011;38941;53.254;6.600;2023-11-21T08:04:42;23.23;;;10.13;;
51836;SDS011;38941;53.254;6.600;2023-11-21T08:06:43;22.58;;;9.52;;
51836;SDS011;38941;53.254;6.600;2023-11-21T08:08:43;23.52;;;9.05;;
51836;SDS011;38941;53.254;6.600;2023-11-21T08:10:44;23.45;;;9.60;;
51836;SDS011;38941;53.254;6.600;2023-11-21T08:12:56;21.23;;;9.77;;
51836;SDS011;38941;53.254;6.600;2023-11-21T08:14:56;22.08;;;10.73;;
51836;SDS011;38941;53.254;6.600;2023-11-21T08:16:57;20.45;;;9.50;;
51836;SDS011;38941;53.254;6.600;2023-11-21T08:18:57;25.80;;;10.80;;
51836;SDS011;38941;53.254;6.600;2023-11-21T08:20:58;30.08;;;11.02;;
51836;SDS011;38941;53.254;6.600;2023-11-21T08:22:59;20.55;;;9.65;;
51836;SDS011;38941;53.254;6.600;2023-11-21T08:24:59;21.17;;;10.13;;
51836;SDS011;38941;53.254;6.600;2023-11-21T08:27:00;27.33;;;9.32;;
51836;SDS011;38941;53.254;6.600;2023-11-21T08:29:02;19.92;;;9.40;;
51836;SDS011;38941;53.254;6.600;2023-11-21T08:31:03;19.55;;;9.60;;
51836;SDS011;38941;53.254;6.600;2023-11-21T08:33:04;20.40;;;8.05;;
51836;SDS011;38941;53.254;6.600;2023-11-21T08:35:05;17.83;;;8.95;;
51836;SDS011;38941;53.254;6.600;2023-11-21T08:37:07;20.02;;;9.32;;
51836;SDS011;38941;53.254;6.600;2023-11-21T08:39:08;20.10;;;8.70;;
51836;SDS011;38941;53.254;6.600;2023-11-21T08:41:09;18.42;;;9.32;;
51836;SDS011;38941;53.254;6.600;2023-11-21T08:43:11;15.38;;;7.43;;
51836;SDS011;38941;53.254;6.600;2023-11-21T08:45:12;16.00;;;7.70;;
51836;SDS011;38941;53.254;6.600;2023-11-21T08:47:13;15.98;;;7.43;;
51836;SDS011;38941;53.254;6.600;2023-11-21T08:49:14;15.48;;;7.10;;
51836;SDS011;38941;53.254;6.600;2023-11-21T08:51:15;14.02;;;7.22;;
51836;SDS011;38941;53.254;6.600;2023-11-21T08:53:16;13.70;;;6.95;;
51836;SDS011;38941;53.254;6.600;2023-11-21T08:55:17;13.35;;;6.75;;
51836;SDS011;38941;53.254;6.600;2023-11-21T08:57:20;14.85;;;6.85;;
51836;SDS011;38941;53.254;6.600;2023-11-21T08:59:21;13.75;;;7.45;;
51836;SDS011;38941;53.254;6.600;2023-11-21T09:01:22;11.43;;;6.43;;
51836;SDS011;38941;53.254;6.600;2023-11-21T09:03:23;15.52;;;6.80;;
51836;SDS011;38941;53.254;6.600;2023-11-21T09:05:24;12.95;;;6.82;;
51836;SDS011;38941;53.254;6.600;2023-11-21T09:07:26;15.07;;;7.75;;
51836;SDS011;38941;53.254;6.600;2023-11-21T09:09:26;11.05;;;6.28;;
51836;SDS011;38941;53.254;6.600;2023-11-21T09:11:27;12.98;;;7.28;;
51836;SDS011;38941;53.254;6.600;2023-11-21T09:13:33;12.13;;;6.70;;
51836;SDS011;38941;53.254;6.600;2023-11-21T09:15:35;14.07;;;7.57;;
51836;SDS011;38941;53.254;6.600;2023-11-21T09:17:36;14.52;;;7.82;;
51836;SDS011;38941;53.254;6.600;2023-11-21T09:19:37;14.60;;;6.95;;
51836;SDS011;38941;53.254;6.600;2023-11-21T09:21:38;14.90;;;6.72;;
51836;SDS011;38941;53.254;6.600;2023-11-21T09:23:39;11.25;;;5.63;;
51836;SDS011;38941;53.254;6.600;2023-11-21T09:25:39;15.10;;;6.75;;
51836;SDS011;38941;53.254;6.600;2023-11-21T09:27:40;11.77;;;6.28;;
51836;SDS011;38941;53.254;6.600;2023-11-21T09:29:41;12.75;;;6.35;;
51836;SDS011;38941;53.254;6.600;2023-11-21T09:31:41;13.95;;;5.70;;
51836;SDS011;38941;53.254;6.600;2023-11-21T09:33:43;10.25;;;5.60;;
51836;SDS011;38941;53.254;6.600;2023-11-21T09:35:44;11.80;;;5.88;;
51836;SDS011;38941;53.254;6.600;2023-11-21T09:37:45;9.55;;;5.38;;
51836;SDS011;38941;53.254;6.600;2023-11-21T09:39:46;10.07;;;5.50;;
51836;SDS011;38941;53.254;6.600;2023-11-21T09:41:51;11.07;;;5.78;;
51836;SDS011;38941;53.254;6.600;2023-11-21T09:43:55;12.15;;;5.13;;
51836;SDS011;38941;53.254;6.600;2023-11-21T09:46:01;11.23;;;5.43;;
51836;SDS011;38941;53.254;6.600;2023-11-21T09:48:02;9.60;;;5.40;;
51836;SDS011;38941;53.254;6.600;2023-11-21T09:50:03;11.35;;;6.05;;
51836;SDS011;38941;53.254;6.600;2023-11-21T09:52:07;9.15;;;5.07;;
51836;SDS011;38941;53.254;6.600;2023-11-21T09:54:11;8.50;;;4.35;;
51836;SDS011;38941;53.254;6.600;2023-11-21T09:56:15;9.98;;;4.90;;
51836;SDS011;38941;53.254;6.600;2023-11-21T09:58:19;9.05;;;4.32;;
51836;SDS011;38941;53.254;6.600;2023-11-21T10:00:22;11.10;;;4.93;;
51836;SDS011;38941;53.254;6.600;2023-11-21T10:02:24;9.57;;;5.10;;
51836;SDS011;38941;53.254;6.600;2023-11-21T10:04:28;9.48;;;4.40;;
51836;SDS011;38941;53.254;6.600;2023-11-21T10:06:29;12.55;;;4.85;;
51836;SDS011;38941;53.254;6.600;2023-11-21T10:08:31;10.27;;;5.10;;
51836;SDS011;38941;53.254;6.600;2023-11-21T10:10:33;9.45;;;4.97;;
51836;SDS011;38941;53.254;6.600;2023-11-21T10:12:35;7.65;;;4.30;;
51836;SDS011;38941;53.254;6.600;2023-11-21T10:14:38;9.10;;;4.85;;
51836;SDS011;38941;53.254;6.600;2023-11-21T10:16:42;8.65;;;5.28;;
51836;SDS011;38941;53.254;6.600;2023-11-21T10:18:48;10.57;;;5.20;;
51836;SDS011;38941;53.254;6.600;2023-11-21T10:20:52;9.93;;;4.80;;
51836;SDS011;38941;53.254;6.600;2023-11-21T10:22:55;9.75;;;4.30;;
51836;SDS011;38941;53.254;6.600;2023-11-21T10:24:56;8.18;;;4.55;;
51836;SDS011;38941;53.254;6.600;2023-11-21T10:26:57;13.05;;;4.63;;
51836;SDS011;38941;53.254;6.600;2023-11-21T10:28:59;9.75;;;4.60;;
51836;SDS011;38941;53.254;6.600;2023-11-21T10:31:01;8.30;;;3.88;;
51836;SDS011;38941;53.254;6.600;2023-11-21T10:33:01;9.90;;;4.10;;
51836;SDS011;38941;53.254;6.600;2023-11-21T10:35:02;10.50;;;4.25;;
51836;SDS011;38941;53.254;6.600;2023-11-21T10:37:12;6.70;;;4.18;;
51836;SDS011;38941;53.254;6.600;2023-11-21T10:39:17;9.32;;;3.72;;
51836;SDS011;38941;53.254;6.600;2023-11-21T10:41:19;8.40;;;4.30;;
51836;SDS011;38941;53.254;6.600;2023-11-21T10:43:21;8.82;;;4.30;;
51836;SDS011;38941;53.254;6.600;2023-11-21T10:45:25;10.52;;;4.78;;
51836;SDS011;38941;53.254;6.600;2023-11-21T10:47:30;9.27;;;4.90;;
51836;SDS011;38941;53.254;6.600;2023-11-21T10:49:32;8.20;;;3.90;;
51836;SDS011;38941;53.254;6.600;2023-11-21T10:51:32;7.47;;;4.35;;
51836;SDS011;38941;53.254;6.600;2023-11-21T10:53:33;13.30;;;4.82;;
51836;SDS011;38941;53.254;6.600;2023-11-21T10:55:34;6.90;;;3.75;;
51836;SDS011;38941;53.254;6.600;2023-11-21T10:57:34;7.05;;;4.05;;
51836;SDS011;38941;53.254;6.600;2023-11-21T10:59:35;8.60;;;4.43;;
51836;SDS011;38941;53.254;6.600;2023-11-21T11:01:36;9.00;;;4.72;;
51836;SDS011;38941;53.254;6.600;2023-11-21T11:03:37;10.02;;;4.53;;
51836;SDS011;38941;53.254;6.600;2023-11-21T11:05:38;9.82;;;5.07;;
51836;SDS011;38941;53.254;6.600;2023-11-21T11:07:40;6.95;;;4.07;;
51836;SDS011;38941;53.254;6.600;2023-11-21T11:09:44;6.93;;;3.63;;
51836;SDS011;38941;53.254;6.600;2023-11-21T11:11:46;6.80;;;3.80;;
51836;SDS011;38941;53.254;6.600;2023-11-21T11:13:46;7.25;;;3.28;;
51836;SDS011;38941;53.254;6.600;2023-11-21T11:15:47;7.03;;;3.70;;
51836;SDS011;38941;53.254;6.600;2023-11-21T11:17:48;8.98;;;5.20;;
51836;SDS011;38941;53.254;6.600;2023-11-21T11:19:49;8.38;;;3.83;;
51836;SDS011;38941;53.254;6.600;2023-11-21T11:21:54;8.85;;;4.57;;
51836;SDS011;38941;53.254;6.600;2023-11-21T11:24:24;8.77;;;4.80;;
51836;SDS011;38941;53.254;6.600;2023-11-21T11:38:17;8.07;;;4.03;;
51836;SDS011;38941;53.254;6.600;2023-11-21T11:40:18;9.55;;;4.45;;
51836;SDS011;38941;53.254;6.600;2023-11-21T11:42:19;7.05;;;3.85;;
51836;SDS011;38941;53.254;6.600;2023-11-21T11:46:54;8.73;;;4.03;;
51836;SDS011;38941;53.254;6.600;2023-11-21T11:49:03;7.53;;;3.95;;
51836;SDS011;38941;53.254;6.600;2023-11-21T11:51:05;7.35;;;3.72;;
51836;SDS011;38941;53.254;6.600;2023-11-21T11:53:12;6.60;;;4.13;;
51836;SDS011;38941;53.254;6.600;2023-11-21T11:55:15;8.07;;;3.58;;
51836;SDS011;38941;53.254;6.600;2023-11-21T11:57:23;7.63;;;4.07;;
51836;SDS011;38941;53.254;6.600;2023-11-21T11:59:24;8.52;;;3.58;;
51836;SDS011;38941;53.254;6.600;2023-11-21T12:01:26;8.30;;;4.15;;
51836;SDS011;38941;53.254;6.600;2023-11-21T12:03:27;7.35;;;4.03;;
51836;SDS011;38941;53.254;6.600;2023-11-21T12:05:28;11.68;;;4.47;;
51836;SDS011;38941;53.254;6.600;2023-11-21T12:07:46;8.95;;;4.20;;
51836;SDS011;38941;53.254;6.600;2023-11-21T12:09:47;7.18;;;3.85;;
51836;SDS011;38941;53.254;6.600;2023-11-21T12:11:48;8.30;;;4.38;;
51836;SDS011;38941;53.254;6.600;2023-11-21T12:13:49;7.25;;;4.20;;
51836;SDS011;38941;53.254;6.600;2023-11-21T12:15:53;7.57;;;4.43;;
51836;SDS011;38941;53.254;6.600;2023-11-21T12:17:54;6.75;;;3.60;;